Trochu, Canada
Current Conditions -  °F | °C
As of 4:00 PM on Monday 20 Oct 2014 (Local Time) from CYQF Reporting Station
Broken Clouds Broken Clouds  
Wind Chill: 72°   Ceiling: 22000
Heat Index: 72°   Visibility: 15mi
Dew Point: 32°   Wind: 15mph
Humidity: 23%   Direction: 200°SSW
Pressure: 29.56"   Gusts: 21mph
Location:  51.83°N, 113.23°W
Report Text: CYQF 202200Z 20013G18KT 15SM BKN220 22/M00 A2956 RMK CC6 SLP020 DENSITY ALT 4800FT
Loading
Personal Weather Stations






























Interactive Weather Map
Tropical Storm Tracking
New forecast layout! Learn more

10-Day Weather Forecast

Advertisements
Track Severe Weather on mobile